Central Oregon RPC :: ALTURASB

liberation: 2022-05-30  07:45     latitude: 41.489838     longitude: -120.548417 84 birds
# LOFT PRING MILES ARRIVAL SPEED ToWin
1 LAYPORT LOFT AU21-CORP-1255 198.202 2022-05-30 11:51:27.980 1415.348 00:00:00
2 LAYPORT LOFT AU21-CORP-1270 198.202 2022-05-30 11:51:29.318 1415.220 00:00:01
3 STEELE LOFT AU20-CORP-5034 198.722 2022-05-30 11:52:39.414 1412.240 00:00:33
4 ROCKY TOP AU20-CORP-4433 192.104 2022-05-30 11:46:02.577 1402.666 00:02:10
5 ROCKY TOP AU18-CORP-3334 192.104 2022-05-30 11:47:51.192 1392.211 00:03:58
6 ROCKY TOP AU19-ARPU-29027 192.104 2022-05-30 11:48:09.059 1390.506 00:04:16
7 LUCAS CRAMER IF21-KOLV-1507 216.771 2022-05-30 12:19:29.468 1389.908 00:04:56
8 LUCAS CRAMER IF21-KOLV-1522 216.771 2022-05-30 12:19:31.580 1389.729 00:04:58
9 LUCAS CRAMER AU21-ANDY-21 216.771 2022-05-30 12:20:07.039 1386.744 00:05:34
10 LUCAS CRAMER AU21-CORP-465 216.771 2022-05-30 12:20:20.926 1385.578 00:05:47
11 RUETER FAMILY LOFT AU21-CORP-986 226.862 2022-05-30 12:36:10.015 1371.301 00:09:04
12 RUETER FAMILY LOFT AU21-CORP-942 226.862 2022-05-30 12:36:10.387 1371.272 00:09:04
13 LUCAS CRAMER AU18-CORP-2247 216.771 2022-05-30 12:27:18.319 1351.435 00:12:45
14 STEELE LOFT AU20-CORP-5088 198.722 2022-05-30 12:09:55.169 1320.216 00:17:48
15 STEELE LOFT AU20-CORP-5080 198.722 2022-05-30 12:09:56.663 1320.092 00:17:50
16 TOPIGEONUSA AU17-CAPT-54 198.536 2022-05-30 12:09:47.832 1319.587 00:17:55
17 LUCAS CRAMER AU21-CIMP-323 216.771 2022-05-30 12:36:04.298 1310.733 00:21:31
18 LUCAS CRAMER AU21-KEYW-119 216.771 2022-05-30 12:36:35.737 1308.378 00:22:02
19 LUCAS CRAMER AU21-KFLY-2100 216.771 2022-05-30 12:37:45.745 1303.164 00:23:12
20 LAYPORT LOFT AU21-CORP-0623 198.202 2022-05-30 12:14:28.087 1294.534 00:23:00
21 LUCAS CRAMER AU19-LKC-4674 216.771 2022-05-30 12:41:01.107 1288.829 00:26:28
22 LUCAS CRAMER AU21-UVI-342 216.771 2022-05-30 12:41:15.446 1287.790 00:26:42
23 RUETER FAMILY LOFT AU21-CORP-881 226.862 2022-05-30 12:55:14.686 1286.975 00:28:08
24 ROCKY TOP AU21-CORP-0751 192.104 2022-05-30 12:08:20.539 1283.891 00:24:28
25 STEELE LOFT AU21-CORP-120 198.722 2022-05-30 12:17:54.357 1281.580 00:25:48
26 LAYPORT LOFT AU21-CORP-0640 198.202 2022-05-30 12:17:32.816 1279.910 00:26:05
27 LAYPORT LOFT AU21-CORP-1285 198.202 2022-05-30 12:18:24.782 1275.856 00:26:57
28 LUCAS CRAMER AU21-PUEB-21209 216.771 2022-05-30 12:44:47.248 1272.626 00:30:14
29 LUCAS CRAMER AU21-ANDY-20 216.771 2022-05-30 12:44:51.905 1272.296 00:30:18
30 LUCAS CRAMER AU21-SBL-306 216.771 2022-05-30 12:44:56.718 1271.956 00:30:23
31 LUCAS CRAMER AU18-CORP-2201 216.771 2022-05-30 12:44:58.677 1271.818 00:30:25
32 RUETER FAMILY LOFT AU21-CORP-940 226.862 2022-05-30 12:59:07.212 1271.098 00:32:01
33 LAYPORT LOFT AU21-CORP-0691 198.202 2022-05-30 12:19:47.504 1269.454 00:28:20
34 TOPIGEONUSA AU20-CORP-4841 198.536 2022-05-30 12:21:18.981 1264.576 00:29:26
35 TOPIGEONUSA AU19-CORP-4912 198.536 2022-05-30 12:21:20.138 1264.488 00:29:27
36 LUCAS CRAMER AU21-CORP-409 216.771 2022-05-30 12:47:10.343 1262.582 00:32:37
37 LUCAS CRAMER AU21-FOYS-1701 216.771 2022-05-30 12:47:20.025 1261.908 00:32:47
38 LUCAS CRAMER AU21-SBL-305 216.771 2022-05-30 12:47:37.359 1260.703 00:33:04
39 RUETER FAMILY LOFT AU20-CORP-4579 226.862 2022-05-30 13:02:37.630 1257.063 00:35:31
40 RUETER FAMILY LOFT AU21-CORP-860 226.862 2022-05-30 13:03:33.315 1253.401 00:36:27
41 LUCAS CRAMER AU21-TULE-2064 216.771 2022-05-30 12:51:16.348 1245.679 00:36:43
42 LUCAS CRAMER AU21-VITA-3073 216.771 2022-05-30 12:51:22.264 1245.278 00:36:49
43 RUETER FAMILY LOFT AU21-CORP-809 226.862 2022-05-30 13:10:05.086 1228.226 00:42:59
44 ROCKY TOP AU20-CORP-4471 192.104 2022-05-30 12:27:01.933 1198.809 00:43:09
45 LAYPORT LOFT AU21-CORP-0657 198.202 2022-05-30 12:43:51.294 1167.241 00:52:23
46 LUCAS CRAMER AU21-CORP-408 216.771 2022-05-30 13:12:05.633 1166.385 00:57:32
47 LUCAS CRAMER AU21-YB-10 216.771 2022-05-30 13:12:09.422 1166.160 00:57:36
48 LAYPORT LOFT AU21-CORP-0629 198.202 2022-05-30 12:45:45.851 1159.831 00:54:18
49 ROCKY TOP AU19-CORP-4420 192.104 2022-05-30 12:36:35.750 1159.491 00:52:43
50 AMERICAN LOFT AU19-CORP-4699 197.089 2022-05-30 12:46:59.048 1148.659 00:56:54
51 ROCKY TOP AU21-CORP-0763 192.104 2022-05-30 12:42:05.820 1138.022 00:58:13
52 LUCAS CRAMER AU21-CORP-466 216.771 2022-05-30 13:22:57.404 1128.894 01:08:24
53 RUETER FAMILY LOFT AU19-CORP-5330 226.862 2022-05-30 13:40:00.402 1124.704 01:12:54
54 TOPIGEONUSA AU19-CORP-4908 198.536 2022-05-30 12:57:36.659 1117.757 01:05:44
55 ROCKY TOP AU19-CORP-4465 192.104 2022-05-30 12:51:34.758 1102.823 01:07:42
56 STEELE LOFT AU20-CORP-5018 198.722 2022-05-30 13:07:37.699 1084.067 01:15:31
57 ROCKY TOP AU21-CORP-0746 192.104 2022-05-30 13:05:37.025 1054.538 01:21:44
58 ROCKY TOP AU20-ARPU-28101 192.104 2022-05-30 13:16:40.396 1019.385 01:32:47
59 TOPIGEONUSA AU18-CORP-4272 198.536 2022-05-30 13:30:29.311 1011.388 01:38:36
60 AMERICAN LOFT AU19-CORP-4635 197.089 2022-05-30 13:28:15.887 1010.523 01:38:11
61 LAYPORT LOFT AU21-CORP-0695 198.202 2022-05-30 13:51:56.303 950.665 02:00:28
62 ROCKY TOP AU18-CORP-3386 192.104 2022-05-30 14:20:38.000 854.586 02:36:45
63 TIM GRAVES AU17-CORP-2034 191.057 2022-05-30 14:30:30.633 829.229 02:47:56
64 LUCAS CRAMER AU21-CORP-459 216.771 2022-05-30 15:32:20.602 816.353 03:17:47
65 LUCAS CRAMER AU21-CORP-444 216.771 2022-05-30 16:00:08.417 770.524 03:45:35
66 RUETER FAMILY LOFT AU21-CORP-884 226.862 2022-05-30 16:25:09.214 767.614 03:58:03
67 TIM GRAVES AU-15-ARPU-14510 191.057 2022-05-30 15:09:23.806 756.669 03:26:49
68 AMERICAN LOFT AU19-CORP-4681 197.089 2022-05-30 16:23:17.209 669.276 04:33:12
69 LUCAS CRAMER IF21-KOLV-1511 216.771 2022-05-30 18:26:53.373 594.366 06:12:20
70 LUCAS CRAMER AU21-PUEB-21403 216.771 2022-05-30 19:55:00.216 522.624 07:40:27
71 AMERICAN LOFT AU19-CORP-4673 197.089 2022-05-31 07:02:49.948 379.094 11:09:56
72 TIM GRAVES AU17-CORP-834 191.057 2022-05-31 08:29:35.442 335.666 12:44:11
73 LAYPORT LOFT AU21-CORP-1263 198.202 2022-05-31 09:11:16.404 334.308 13:16:59
74 ROCKY TOP AU21-CORP-0711 192.104 2022-05-31 10:46:04.314 297.036 14:59:22
75 RUETER FAMILY LOFT AU21-CORP-850 226.862 2022-06-01 03:09:47.154 228.015 24:29:00
AMERICAN LOFT AU21-CORP-0313 0 0000-00-00 00:00:00.000 0.000 00:00:00
LAYPORT LOFT AU21-CORP-0625 0 0000-00-00 00:00:00.000 0.000 00:00:00
LAYPORT LOFT AU21-CORP-0678 0 0000-00-00 00:00:00.000 0.000 00:00:00
LUCAS CRAMER AU21-CIMP-324 0 0000-00-00 00:00:00.000 0.000 00:00:00
LUCAS CRAMER AU21-CORP-453 0 0000-00-00 00:00:00.000 0.000 00:00:00
LUCAS CRAMER AU21-JEDD-18008 0 0000-00-00 00:00:00.000 0.000 00:00:00
ROCKY TOP AU19-CORP-4466 0 0000-00-00 00:00:00.000 0.000 00:00:00
RUETER FAMILY LOFT AU20-CORP-4683 0 0000-00-00 00:00:00.000 0.000 00:00:00
TIM GRAVES AU-14-CORP-1963 0 0000-00-00 00:00:00.000 0.000 00:00:00